CES2177 ZLXY-ZBTJ
Flight info
| Callsign | CES2177 |
|---|---|
| Flight time | 1h 18m |
| Altitude | 31100 |
| Route | WJC G212 TEKIL W85 OMDEK |
| Aircraft | A20N/M-SDE2E3FGILRWXY/LB2 |
Departure
| Time | 2026-04-22 13:24 |
|---|---|
| Airport | Xi'an Xianyang International Airport (ZLXY) |
Arrival
| Time | 2026-04-22 14:42 |
|---|---|
| Airport | Tianjin Binhai International Airport (ZBTJ) |
| Time | Latitude | Longitude | Altitude | Speed | Heading |
|---|---|---|---|---|---|
| 2026-04-22 13:07 | 34.43751 | 108.76452 | 1575 ft | 0 kts | 139° |
| 2026-04-22 13:18 | 34.43741 | 108.76464 | 1575 ft | 3 kts | 129° |
| 2026-04-22 13:18 | 34.43742 | 108.76513 | 1575 ft | 9 kts | 60° |
| 2026-04-22 13:19 | 34.43797 | 108.76593 | 1575 ft | 14 kts | 49° |
| 2026-04-22 13:19 | 34.43864 | 108.76686 | 1575 ft | 14 kts | 49° |
| 2026-04-22 13:19 | 34.43890 | 108.76760 | 1575 ft | 9 kts | 115° |
| 2026-04-22 13:19 | 34.43841 | 108.76832 | 1575 ft | 11 kts | 110° |
| 2026-04-22 13:20 | 34.43816 | 108.76929 | 1575 ft | 12 kts | 132° |
| 2026-04-22 13:20 | 34.43751 | 108.77000 | 1575 ft | 12 kts | 122° |
| 2026-04-22 13:20 | 34.43766 | 108.77095 | 1575 ft | 12 kts | 50° |
| 2026-04-22 13:20 | 34.43831 | 108.77186 | 1575 ft | 16 kts | 50° |
| 2026-04-22 13:21 | 34.43913 | 108.77298 | 1575 ft | 19 kts | 50° |
| 2026-04-22 13:21 | 34.44008 | 108.77428 | 1575 ft | 20 kts | 48° |
| 2026-04-22 13:21 | 34.44104 | 108.77557 | 1575 ft | 20 kts | 50° |
| 2026-04-22 13:21 | 34.44193 | 108.77687 | 1575 ft | 19 kts | 49° |
| 2026-04-22 13:22 | 34.44282 | 108.77809 | 1575 ft | 19 kts | 48° |
| 2026-04-22 13:22 | 34.44370 | 108.77929 | 1575 ft | 18 kts | 49° |
| 2026-04-22 13:22 | 34.44439 | 108.78026 | 1575 ft | 10 kts | 57° |
| 2026-04-22 13:22 | 34.44429 | 108.78114 | 1575 ft | 11 kts | 132° |
| 2026-04-22 13:23 | 34.44363 | 108.78173 | 1575 ft | 12 kts | 167° |
| 2026-04-22 13:23 | 34.44286 | 108.78127 | 1575 ft | 13 kts | 226° |
| 2026-04-22 13:23 | 34.44119 | 108.77897 | 1575 ft | 70 kts | 229° |
| 2026-04-22 13:23 | 34.43652 | 108.77251 | 1575 ft | 132 kts | 230° |
| 2026-04-22 13:24 | 34.42939 | 108.76261 | 1688 ft | 170 kts | 230° |
| 2026-04-22 13:24 | 34.42158 | 108.75179 | 2235 ft | 173 kts | 230° |
| 2026-04-22 13:24 | 34.41361 | 108.74081 | 2872 ft | 174 kts | 229° |
| 2026-04-22 13:24 | 34.40566 | 108.72988 | 3419 ft | 178 kts | 229° |
| 2026-04-22 13:25 | 34.39711 | 108.71815 | 3796 ft | 194 kts | 229° |
| 2026-04-22 13:25 | 34.38793 | 108.70554 | 4166 ft | 210 kts | 229° |
| 2026-04-22 13:25 | 34.37759 | 108.69135 | 4475 ft | 234 kts | 229° |
| 2026-04-22 13:25 | 34.36678 | 108.67649 | 5143 ft | 240 kts | 229° |
| 2026-04-22 13:26 | 34.35609 | 108.66104 | 5869 ft | 245 kts | 238° |
| 2026-04-22 13:26 | 34.35101 | 108.64120 | 6292 ft | 259 kts | 274° |
| 2026-04-22 13:26 | 34.35680 | 108.62041 | 6745 ft | 272 kts | 309° |
| 2026-04-22 13:26 | 34.37194 | 108.60699 | 7442 ft | 276 kts | 343° |
| 2026-04-22 13:27 | 34.39085 | 108.60592 | 8280 ft | 276 kts | 11° |
| 2026-04-22 13:27 | 34.40938 | 108.61062 | 9154 ft | 277 kts | 11° |
| 2026-04-22 13:27 | 34.42854 | 108.61460 | 9981 ft | 279 kts | 8° |
| 2026-04-22 13:27 | 34.44777 | 108.61782 | 10659 ft | 286 kts | 7° |
| 2026-04-22 13:28 | 34.46804 | 108.62075 | 11057 ft | 303 kts | 6° |
| 2026-04-22 13:28 | 34.48990 | 108.62364 | 11426 ft | 321 kts | 6° |
| 2026-04-22 13:28 | 34.51265 | 108.62656 | 11730 ft | 339 kts | 6° |
| 2026-04-22 13:28 | 34.53659 | 108.63112 | 12066 ft | 354 kts | 16° |
| 2026-04-22 13:29 | 34.55884 | 108.64378 | 12682 ft | 362 kts | 32° |
| 2026-04-22 13:29 | 34.57773 | 108.66416 | 13429 ft | 366 kts | 45° |
| 2026-04-22 13:29 | 34.59472 | 108.68705 | 14095 ft | 370 kts | 46° |
| 2026-04-22 13:29 | 34.61205 | 108.71079 | 14722 ft | 375 kts | 46° |
| 2026-04-22 13:30 | 34.62944 | 108.73458 | 15294 ft | 380 kts | 45° |
| 2026-04-22 13:30 | 34.64689 | 108.75844 | 15878 ft | 385 kts | 45° |
| 2026-04-22 13:30 | 34.66494 | 108.78307 | 16443 ft | 390 kts | 45° |
| 2026-04-22 13:30 | 34.68282 | 108.80743 | 17005 ft | 394 kts | 45° |
| 2026-04-22 13:31 | 34.70112 | 108.83240 | 17539 ft | 399 kts | 44° |
| 2026-04-22 13:31 | 34.71989 | 108.85797 | 18062 ft | 404 kts | 44° |
| 2026-04-22 13:31 | 34.73840 | 108.88326 | 18574 ft | 408 kts | 44° |
| 2026-04-22 13:31 | 34.75754 | 108.90941 | 19058 ft | 413 kts | 44° |
| 2026-04-22 13:32 | 34.77663 | 108.93550 | 19553 ft | 418 kts | 44° |
| 2026-04-22 13:32 | 34.79600 | 108.96185 | 20036 ft | 421 kts | 42° |
| 2026-04-22 13:32 | 34.81780 | 108.98525 | 20508 ft | 419 kts | 31° |
| 2026-04-22 13:32 | 34.84298 | 109.00313 | 20981 ft | 416 kts | 19° |
| 2026-04-22 13:33 | 34.86996 | 109.01545 | 21445 ft | 416 kts | 13° |
| 2026-04-22 13:33 | 34.89731 | 109.02619 | 21900 ft | 419 kts | 12° |
| 2026-04-22 13:33 | 34.92514 | 109.03692 | 22353 ft | 422 kts | 12° |
| 2026-04-22 13:33 | 34.95333 | 109.04782 | 22785 ft | 426 kts | 12° |
| 2026-04-22 13:34 | 34.98169 | 109.05885 | 23205 ft | 430 kts | 12° |
| 2026-04-22 13:34 | 35.01053 | 109.07015 | 23604 ft | 434 kts | 12° |
| 2026-04-22 13:34 | 35.03924 | 109.08144 | 24002 ft | 438 kts | 12° |
| 2026-04-22 13:34 | 35.06833 | 109.09292 | 24381 ft | 442 kts | 12° |
| 2026-04-22 13:35 | 35.09768 | 109.10452 | 24768 ft | 445 kts | 12° |
| 2026-04-22 13:35 | 35.12705 | 109.11616 | 25170 ft | 448 kts | 12° |
| 2026-04-22 13:35 | 35.15702 | 109.12806 | 25693 ft | 447 kts | 12° |
| 2026-04-22 13:35 | 35.18633 | 109.13972 | 26195 ft | 447 kts | 11° |
| 2026-04-22 13:36 | 35.21582 | 109.15146 | 26645 ft | 447 kts | 11° |
| 2026-04-22 13:36 | 35.24556 | 109.16326 | 27086 ft | 448 kts | 11° |
| 2026-04-22 13:36 | 35.27497 | 109.17497 | 27527 ft | 448 kts | 11° |
| 2026-04-22 13:36 | 35.30462 | 109.18677 | 27966 ft | 449 kts | 11° |
| 2026-04-22 13:37 | 35.33424 | 109.19857 | 28405 ft | 449 kts | 11° |
| 2026-04-22 13:37 | 35.36420 | 109.21049 | 28845 ft | 449 kts | 11° |
| 2026-04-22 13:37 | 35.39361 | 109.22225 | 29286 ft | 449 kts | 11° |
| 2026-04-22 13:37 | 35.42312 | 109.23403 | 29752 ft | 448 kts | 11° |
| 2026-04-22 13:38 | 35.45316 | 109.24603 | 30103 ft | 450 kts | 11° |
| 2026-04-22 13:38 | 35.51273 | 109.26984 | 30651 ft | 455 kts | 11° |
| 2026-04-22 13:38 | 35.54306 | 109.28199 | 30927 ft | 457 kts | 10° |
| 2026-04-22 13:39 | 35.57299 | 109.29400 | 31147 ft | 459 kts | 10° |
| 2026-04-22 13:39 | 35.60338 | 109.30621 | 31175 ft | 460 kts | 10° |
| 2026-04-22 13:39 | 35.66442 | 109.33072 | 31187 ft | 459 kts | 10° |
| 2026-04-22 13:40 | 35.72456 | 109.35598 | 31182 ft | 463 kts | 15° |
| 2026-04-22 13:40 | 35.78079 | 109.39693 | 31182 ft | 478 kts | 32° |
| 2026-04-22 13:41 | 35.82687 | 109.45650 | 31187 ft | 487 kts | 48° |
| 2026-04-22 13:41 | 35.86628 | 109.52417 | 31180 ft | 487 kts | 50° |
| 2026-04-22 13:42 | 35.90550 | 109.59222 | 31188 ft | 487 kts | 49° |
| 2026-04-22 13:42 | 35.94469 | 109.65949 | 31197 ft | 485 kts | 50° |
| 2026-04-22 13:43 | 35.98428 | 109.72725 | 31197 ft | 485 kts | 50° |
| 2026-04-22 13:43 | 36.02340 | 109.79428 | 31188 ft | 485 kts | 50° |
| 2026-04-22 13:44 | 36.06294 | 109.86213 | 31195 ft | 486 kts | 50° |
| 2026-04-22 13:44 | 36.10224 | 109.92976 | 31198 ft | 487 kts | 50° |
| 2026-04-22 13:45 | 36.14166 | 109.99773 | 31191 ft | 487 kts | 50° |
| 2026-04-22 13:45 | 36.18108 | 110.06583 | 31187 ft | 486 kts | 49° |
| 2026-04-22 13:46 | 36.22030 | 110.13374 | 31188 ft | 486 kts | 50° |
| 2026-04-22 13:46 | 36.25947 | 110.20171 | 31180 ft | 486 kts | 50° |
| 2026-04-22 13:47 | 36.29851 | 110.26966 | 31187 ft | 487 kts | 50° |
| 2026-04-22 13:47 | 36.33778 | 110.33818 | 31176 ft | 486 kts | 50° |
| 2026-04-22 13:48 | 36.37678 | 110.40633 | 31170 ft | 487 kts | 50° |
| 2026-04-22 13:48 | 36.41585 | 110.47475 | 31172 ft | 486 kts | 50° |
| 2026-04-22 13:49 | 36.45464 | 110.54285 | 31162 ft | 485 kts | 50° |
| 2026-04-22 13:49 | 36.49353 | 110.61124 | 31165 ft | 485 kts | 50° |
| 2026-04-22 13:50 | 36.53235 | 110.67966 | 31167 ft | 485 kts | 51° |
| 2026-04-22 13:50 | 36.57095 | 110.74779 | 31170 ft | 484 kts | 51° |
| 2026-04-22 13:51 | 36.60962 | 110.81625 | 31176 ft | 485 kts | 51° |
| 2026-04-22 13:51 | 36.64824 | 110.88470 | 31174 ft | 485 kts | 51° |
| 2026-04-22 13:52 | 36.68711 | 110.95378 | 31191 ft | 486 kts | 51° |
| 2026-04-22 13:52 | 36.72787 | 111.02016 | 31191 ft | 481 kts | 45° |
| 2026-04-22 13:53 | 36.77229 | 111.08208 | 31198 ft | 479 kts | 43° |
| 2026-04-22 13:53 | 36.81682 | 111.14339 | 31198 ft | 479 kts | 44° |
| 2026-04-22 13:54 | 36.86129 | 111.20502 | 31195 ft | 478 kts | 44° |
| 2026-04-22 13:54 | 36.90560 | 111.26668 | 31198 ft | 479 kts | 44° |
| 2026-04-22 13:55 | 36.94994 | 111.32849 | 31202 ft | 478 kts | 44° |
| 2026-04-22 13:55 | 36.99438 | 111.39064 | 31194 ft | 479 kts | 44° |
| 2026-04-22 13:56 | 37.03868 | 111.45265 | 31192 ft | 480 kts | 45° |
| 2026-04-22 13:56 | 37.08319 | 111.51511 | 31177 ft | 480 kts | 44° |
| 2026-04-22 13:57 | 37.12735 | 111.57725 | 31175 ft | 480 kts | 45° |
| 2026-04-22 13:57 | 37.17174 | 111.63973 | 31184 ft | 482 kts | 45° |
| 2026-04-22 13:58 | 37.21616 | 111.70246 | 31174 ft | 482 kts | 46° |
| 2026-04-22 13:58 | 37.25749 | 111.76886 | 31170 ft | 486 kts | 53° |
| 2026-04-22 13:59 | 37.29193 | 111.84173 | 31175 ft | 489 kts | 61° |
| 2026-04-22 13:59 | 37.32282 | 111.91795 | 31174 ft | 489 kts | 62° |
| 2026-04-22 14:00 | 37.35362 | 111.99369 | 31185 ft | 490 kts | 62° |
| 2026-04-22 14:00 | 37.38453 | 112.06955 | 31161 ft | 490 kts | 62° |
| 2026-04-22 14:01 | 37.41550 | 112.14565 | 31173 ft | 490 kts | 62° |
| 2026-04-22 14:01 | 37.44641 | 112.22179 | 31164 ft | 490 kts | 62° |
| 2026-04-22 14:02 | 37.47741 | 112.29834 | 31170 ft | 491 kts | 62° |
| 2026-04-22 14:02 | 37.50812 | 112.37440 | 31166 ft | 491 kts | 62° |
| 2026-04-22 14:03 | 37.53898 | 112.45100 | 31170 ft | 490 kts | 62° |
| 2026-04-22 14:03 | 37.56974 | 112.52749 | 31168 ft | 491 kts | 62° |
| 2026-04-22 14:04 | 37.60057 | 112.60424 | 31159 ft | 493 kts | 62° |
| 2026-04-22 14:04 | 37.63128 | 112.68088 | 31151 ft | 492 kts | 63° |
| 2026-04-22 14:05 | 37.66203 | 112.75761 | 31154 ft | 493 kts | 63° |
| 2026-04-22 14:06 | 37.70816 | 112.87314 | 31149 ft | 492 kts | 63° |
| 2026-04-22 14:06 | 37.73885 | 112.95023 | 31168 ft | 492 kts | 63° |
| 2026-04-22 14:07 | 37.76953 | 113.02750 | 31155 ft | 493 kts | 64° |
| 2026-04-22 14:07 | 37.80029 | 113.10523 | 31161 ft | 494 kts | 63° |
| 2026-04-22 14:08 | 37.83081 | 113.18257 | 31169 ft | 493 kts | 64° |
| 2026-04-22 14:08 | 37.86109 | 113.25947 | 31165 ft | 491 kts | 63° |
| 2026-04-22 14:09 | 37.89161 | 113.33717 | 31165 ft | 492 kts | 63° |
| 2026-04-22 14:09 | 37.92182 | 113.41430 | 31147 ft | 493 kts | 64° |
| 2026-04-22 14:10 | 37.95217 | 113.49196 | 31148 ft | 492 kts | 64° |
| 2026-04-22 14:10 | 37.98241 | 113.56969 | 31149 ft | 492 kts | 64° |
| 2026-04-22 14:11 | 38.01247 | 113.64719 | 31136 ft | 492 kts | 64° |
| 2026-04-22 14:11 | 38.04258 | 113.72512 | 31126 ft | 492 kts | 64° |
| 2026-04-22 14:12 | 38.07258 | 113.80291 | 31127 ft | 493 kts | 64° |
| 2026-04-22 14:12 | 38.10262 | 113.88105 | 31108 ft | 494 kts | 64° |
| 2026-04-22 14:13 | 38.13259 | 113.95924 | 31104 ft | 494 kts | 64° |
| 2026-04-22 14:13 | 38.16249 | 114.03747 | 31096 ft | 496 kts | 64° |
| 2026-04-22 14:14 | 38.19236 | 114.11581 | 31098 ft | 496 kts | 64° |
| 2026-04-22 14:14 | 38.22258 | 114.19473 | 31095 ft | 496 kts | 64° |
| 2026-04-22 14:15 | 38.25272 | 114.27351 | 31095 ft | 496 kts | 64° |
| 2026-04-22 14:15 | 38.28273 | 114.35226 | 31096 ft | 497 kts | 64° |
| 2026-04-22 14:16 | 38.31267 | 114.43106 | 31097 ft | 498 kts | 64° |
| 2026-04-22 14:16 | 38.34275 | 114.51045 | 31100 ft | 498 kts | 64° |
| 2026-04-22 14:17 | 38.37266 | 114.58955 | 31099 ft | 498 kts | 64° |
| 2026-04-22 14:17 | 38.40253 | 114.66882 | 31102 ft | 498 kts | 64° |
| 2026-04-22 14:18 | 38.43252 | 114.74873 | 31106 ft | 499 kts | 64° |
| 2026-04-22 14:18 | 38.46224 | 114.82821 | 31109 ft | 499 kts | 64° |
| 2026-04-22 14:19 | 38.49208 | 114.90806 | 31111 ft | 500 kts | 64° |
| 2026-04-22 14:19 | 38.52169 | 114.98744 | 31113 ft | 500 kts | 64° |
| 2026-04-22 14:20 | 38.56643 | 115.10803 | 31112 ft | 501 kts | 64° |
| 2026-04-22 14:20 | 38.59153 | 115.19022 | 31109 ft | 500 kts | 79° |
| 2026-04-22 14:21 | 38.59504 | 115.27770 | 31112 ft | 492 kts | 101° |
| 2026-04-22 14:21 | 38.58807 | 115.32036 | 31114 ft | 486 kts | 110° |
| 2026-04-22 14:22 | 38.55804 | 115.44337 | 31111 ft | 486 kts | 112° |
| 2026-04-22 14:23 | 38.52879 | 115.56711 | 31111 ft | 487 kts | 111° |
| 2026-04-22 14:23 | 38.51231 | 115.65062 | 31106 ft | 494 kts | 100° |
| 2026-04-22 14:23 | 38.51136 | 115.69428 | 31107 ft | 499 kts | 89° |
| 2026-04-22 14:24 | 38.51669 | 115.73805 | 31108 ft | 502 kts | 77° |
| 2026-04-22 14:24 | 38.52814 | 115.77987 | 31110 ft | 502 kts | 65° |
| 2026-04-22 14:24 | 38.54376 | 115.81965 | 30947 ft | 503 kts | 61° |
| 2026-04-22 14:24 | 38.56055 | 115.85925 | 30704 ft | 501 kts | 60° |
| 2026-04-22 14:25 | 38.57700 | 115.89798 | 30460 ft | 498 kts | 61° |
| 2026-04-22 14:25 | 38.59307 | 115.93671 | 30206 ft | 496 kts | 62° |
| 2026-04-22 14:25 | 38.60880 | 115.97543 | 29899 ft | 493 kts | 62° |
| 2026-04-22 14:25 | 38.62453 | 116.01463 | 29424 ft | 491 kts | 62° |
| 2026-04-22 14:26 | 38.63971 | 116.05339 | 28843 ft | 490 kts | 65° |
| 2026-04-22 14:26 | 38.65057 | 116.09441 | 28177 ft | 490 kts | 78° |
| 2026-04-22 14:26 | 38.65480 | 116.13730 | 27531 ft | 486 kts | 90° |
| 2026-04-22 14:26 | 38.65416 | 116.18000 | 26938 ft | 482 kts | 94° |
| 2026-04-22 14:27 | 38.65246 | 116.22257 | 26291 ft | 481 kts | 94° |
| 2026-04-22 14:27 | 38.65079 | 116.26489 | 25634 ft | 480 kts | 92° |
| 2026-04-22 14:27 | 38.64942 | 116.30743 | 24985 ft | 479 kts | 92° |
| 2026-04-22 14:27 | 38.64910 | 116.34956 | 24313 ft | 477 kts | 86° |
| 2026-04-22 14:28 | 38.65247 | 116.39114 | 23859 ft | 467 kts | 78° |
| 2026-04-22 14:28 | 38.65955 | 116.43128 | 23459 ft | 460 kts | 72° |
| 2026-04-22 14:28 | 38.66856 | 116.47002 | 23001 ft | 457 kts | 70° |
| 2026-04-22 14:28 | 38.67801 | 116.50856 | 22513 ft | 453 kts | 69° |
| 2026-04-22 14:29 | 38.68733 | 116.54673 | 22013 ft | 448 kts | 70° |
| 2026-04-22 14:29 | 38.69638 | 116.58456 | 21521 ft | 444 kts | 70° |
| 2026-04-22 14:29 | 38.70532 | 116.62248 | 21004 ft | 440 kts | 70° |
| 2026-04-22 14:29 | 38.71394 | 116.65949 | 20504 ft | 436 kts | 71° |
| 2026-04-22 14:30 | 38.72243 | 116.69630 | 19999 ft | 432 kts | 71° |
| 2026-04-22 14:30 | 38.73082 | 116.73281 | 19471 ft | 427 kts | 71° |
| 2026-04-22 14:30 | 38.73910 | 116.76887 | 18973 ft | 421 kts | 71° |
| 2026-04-22 14:30 | 38.74730 | 116.80467 | 18470 ft | 416 kts | 70° |
| 2026-04-22 14:31 | 38.75536 | 116.83984 | 17972 ft | 411 kts | 70° |
| 2026-04-22 14:31 | 38.76342 | 116.87501 | 17480 ft | 407 kts | 70° |
| 2026-04-22 14:31 | 38.77129 | 116.90944 | 16976 ft | 403 kts | 70° |
| 2026-04-22 14:31 | 38.77903 | 116.94328 | 16489 ft | 399 kts | 70° |
| 2026-04-22 14:32 | 38.78743 | 116.97711 | 15973 ft | 392 kts | 63° |
| 2026-04-22 14:32 | 38.80214 | 117.00557 | 15171 ft | 386 kts | 41° |
| 2026-04-22 14:32 | 38.82455 | 117.02385 | 14304 ft | 381 kts | 18° |
| 2026-04-22 14:32 | 38.84988 | 117.03198 | 13715 ft | 374 kts | 10° |
| 2026-04-22 14:33 | 38.87502 | 117.03876 | 13118 ft | 370 kts | 11° |
| 2026-04-22 14:33 | 38.89983 | 117.04592 | 12485 ft | 367 kts | 12° |
| 2026-04-22 14:33 | 38.92456 | 117.05341 | 11701 ft | 363 kts | 12° |
| 2026-04-22 14:33 | 38.94910 | 117.06110 | 10735 ft | 362 kts | 13° |
| 2026-04-22 14:34 | 38.97303 | 117.06874 | 10068 ft | 352 kts | 13° |
| 2026-04-22 14:34 | 38.99658 | 117.07636 | 9435 ft | 344 kts | 13° |
| 2026-04-22 14:34 | 39.01923 | 117.08375 | 8789 ft | 337 kts | 14° |
| 2026-04-22 14:34 | 39.04182 | 117.09116 | 8153 ft | 331 kts | 14° |
| 2026-04-22 14:35 | 39.06382 | 117.09837 | 7542 ft | 325 kts | 14° |
| 2026-04-22 14:35 | 39.08556 | 117.10551 | 6953 ft | 319 kts | 14° |
| 2026-04-22 14:35 | 39.10669 | 117.11245 | 6324 ft | 310 kts | 14° |
| 2026-04-22 14:35 | 39.12701 | 117.11913 | 5656 ft | 302 kts | 14° |
| 2026-04-22 14:36 | 39.14701 | 117.12570 | 4992 ft | 294 kts | 14° |
| 2026-04-22 14:36 | 39.16663 | 117.13217 | 4350 ft | 286 kts | 14° |
| 2026-04-22 14:36 | 39.18543 | 117.13837 | 3895 ft | 274 kts | 14° |
| 2026-04-22 14:36 | 39.20367 | 117.14439 | 3465 ft | 264 kts | 13° |
| 2026-04-22 14:37 | 39.22100 | 117.15016 | 3228 ft | 250 kts | 16° |
| 2026-04-22 14:37 | 39.23559 | 117.16039 | 3043 ft | 237 kts | 51° |
| 2026-04-22 14:37 | 39.24363 | 117.17861 | 2932 ft | 232 kts | 70° |
| 2026-04-22 14:37 | 39.24924 | 117.19775 | 2796 ft | 226 kts | 72° |
| 2026-04-22 14:38 | 39.25499 | 117.21648 | 2589 ft | 222 kts | 70° |
| 2026-04-22 14:38 | 39.26070 | 117.23494 | 2246 ft | 222 kts | 81° |
| 2026-04-22 14:38 | 39.25986 | 117.25385 | 1987 ft | 209 kts | 117° |
| 2026-04-22 14:38 | 39.25124 | 117.26740 | 1973 ft | 188 kts | 146° |
| 2026-04-22 14:39 | 39.24043 | 117.27540 | 2047 ft | 170 kts | 155° |
| 2026-04-22 14:39 | 39.23042 | 117.28140 | 1983 ft | 146 kts | 156° |
| 2026-04-22 14:39 | 39.22163 | 117.28654 | 1873 ft | 135 kts | 156° |
| 2026-04-22 14:40 | 39.20751 | 117.29505 | 1562 ft | 133 kts | 155° |
| 2026-04-22 14:40 | 39.19634 | 117.30190 | 1317 ft | 133 kts | 155° |
| 2026-04-22 14:40 | 39.18803 | 117.30703 | 1136 ft | 132 kts | 154° |
| 2026-04-22 14:40 | 39.17973 | 117.31213 | 958 ft | 132 kts | 155° |
| 2026-04-22 14:41 | 39.17146 | 117.31712 | 761 ft | 131 kts | 154° |
| 2026-04-22 14:41 | 39.16326 | 117.32222 | 600 ft | 131 kts | 154° |
| 2026-04-22 14:41 | 39.15500 | 117.32748 | 425 ft | 131 kts | 154° |
| 2026-04-22 14:41 | 39.14683 | 117.33243 | 244 ft | 129 kts | 155° |
| 2026-04-22 14:42 | 39.13874 | 117.33732 | 75 ft | 129 kts | 154° |
| 2026-04-22 14:42 | 39.13112 | 117.34200 | 18 ft | 106 kts | 154° |
| 2026-04-22 14:42 | 39.12604 | 117.34514 | 21 ft | 54 kts | 155° |
| 2026-04-22 14:42 | 39.12395 | 117.34673 | 24 ft | 30 kts | 141° |
| 2026-04-22 14:43 | 39.12293 | 117.34831 | 22 ft | 20 kts | 120° |
| 2026-04-22 14:43 | 39.12209 | 117.34984 | 19 ft | 21 kts | 128° |
| 2026-04-22 14:43 | 39.12087 | 117.35084 | 18 ft | 20 kts | 152° |
| 2026-04-22 14:43 | 39.11963 | 117.35161 | 18 ft | 14 kts | 154° |
| 2026-04-22 14:44 | 39.11914 | 117.35246 | 17 ft | 13 kts | 78° |
| 2026-04-22 14:44 | 39.11953 | 117.35367 | 15 ft | 16 kts | 65° |
| 2026-04-22 14:44 | 39.12006 | 117.35510 | 15 ft | 18 kts | 62° |
| 2026-04-22 14:44 | 39.12065 | 117.35665 | 15 ft | 19 kts | 65° |
| 2026-04-22 14:45 | 39.12122 | 117.35824 | 15 ft | 19 kts | 65° |
| 2026-04-22 14:45 | 39.12180 | 117.35980 | 15 ft | 19 kts | 64° |
| 2026-04-22 14:45 | 39.12237 | 117.36129 | 18 ft | 17 kts | 63° |
| 2026-04-22 14:45 | 39.12290 | 117.36271 | 18 ft | 17 kts | 64° |
| 2026-04-22 14:46 | 39.12333 | 117.36387 | 18 ft | 10 kts | 56° |
| 2026-04-22 14:46 | 39.12405 | 117.36401 | 18 ft | 12 kts | 340° |
| 2026-04-22 14:46 | 39.12485 | 117.36356 | 18 ft | 13 kts | 335° |
| 2026-04-22 14:46 | 39.12570 | 117.36304 | 18 ft | 13 kts | 333° |
| 2026-04-22 14:47 | 39.12618 | 117.36206 | 18 ft | 12 kts | 271° |
| 2026-04-22 14:47 | 39.12616 | 117.36130 | 18 ft | 4 kts | 267° |
| 2026-04-22 14:47 | 39.12615 | 117.36117 | 18 ft | 0 kts | 267° |